createdAt,value
2018-11-05T00:01:55.732Z,14.17
2018-11-05T00:04:25.743Z,16.37
2018-11-05T00:06:55.725Z,16.47
2018-11-05T00:09:27.067Z,14.70
2018-11-05T00:11:57.410Z,15.90
2018-11-05T00:14:24.976Z,14.50
2018-11-05T00:16:52.509Z,15.13
2018-11-05T00:19:20.301Z,14.00
2018-11-05T00:21:48.021Z,18.00
2018-11-05T00:24:15.493Z,14.70
2018-11-05T00:26:43.247Z,15.97
2018-11-05T00:29:12.462Z,15.37
2018-11-05T00:31:39.928Z,12.77
2018-11-05T00:34:07.471Z,13.63
2018-11-05T00:36:34.883Z,13.83
2018-11-05T00:39:02.619Z,13.93
2018-11-05T00:41:30.748Z,14.77
2018-11-05T00:43:58.312Z,14.67
2018-11-05T00:46:25.974Z,15.67
2018-11-05T00:48:53.486Z,13.50
2018-11-05T00:51:21.025Z,13.40
2018-11-05T00:53:50.155Z,13.20
2018-11-05T00:56:17.656Z,13.40
2018-11-05T00:58:46.452Z,13.73
2018-11-05T01:01:13.969Z,13.90
2018-11-05T01:03:41.516Z,13.30
2018-11-05T01:06:12.613Z,15.47
2018-11-05T01:08:40.071Z,13.17
2018-11-05T01:11:07.730Z,12.80
2018-11-05T01:13:35.413Z,12.20
2018-11-05T01:16:02.958Z,12.33
2018-11-05T01:18:30.629Z,14.30
2018-11-05T01:20:58.060Z,12.73
2018-11-05T01:23:25.551Z,13.77
2018-11-05T01:25:53.099Z,14.00
2018-11-05T01:28:20.667Z,13.03
2018-11-05T01:30:48.239Z,14.10
2018-11-05T01:33:15.616Z,13.97
2018-11-05T01:35:43.086Z,13.30
2018-11-05T01:38:12.574Z,14.27
2018-11-05T01:40:40.633Z,12.93
2018-11-05T01:43:08.180Z,13.60
2018-11-05T01:45:35.572Z,13.13
2018-11-05T01:48:03.191Z,12.50
2018-11-05T01:50:32.023Z,13.33
2018-11-05T01:52:59.519Z,13.33
2018-11-05T01:55:27.091Z,13.77
2018-11-05T01:57:54.554Z,13.83
2018-11-05T02:00:22.023Z,12.63
2018-11-05T02:02:50.297Z,13.37
2018-11-05T02:05:17.949Z,13.40
2018-11-05T02:07:46.140Z,13.73
2018-11-05T02:10:14.893Z,13.40
2018-11-05T02:12:42.470Z,13.43
2018-11-05T02:15:10.480Z,13.70
2018-11-05T02:17:38.805Z,13.30
2018-11-05T02:20:07.001Z,12.07
2018-11-05T02:22:34.416Z,14.20
2018-11-05T02:25:02.496Z,15.13
2018-11-05T02:27:29.985Z,12.87
2018-11-05T02:29:57.440Z,15.00
2018-11-05T02:32:25.109Z,13.37
2018-11-05T02:34:52.565Z,14.67
2018-11-05T02:37:19.972Z,14.83
2018-11-05T02:39:47.464Z,13.53
2018-11-05T02:42:15.070Z,14.50
2018-11-05T02:44:43.887Z,14.13
2018-11-05T02:47:11.536Z,14.87
2018-11-05T02:49:39.063Z,13.90
2018-11-05T02:52:06.717Z,16.20
2018-11-05T02:54:34.990Z,16.33
2018-11-05T02:57:02.541Z,14.60
2018-11-05T02:59:31.157Z,13.80
2018-11-05T03:01:58.578Z,14.67
2018-11-05T03:04:26.072Z,14.73
2018-11-05T03:06:53.764Z,15.23
2018-11-05T03:09:21.281Z,14.20
2018-11-05T03:11:48.801Z,14.63
2018-11-05T03:14:16.284Z,13.97
2018-11-05T03:16:44.196Z,13.77
2018-11-05T03:19:11.776Z,13.73
2018-11-05T03:21:39.171Z,16.23
2018-11-05T03:24:06.680Z,15.53
2018-11-05T03:26:34.048Z,14.50
2018-11-05T03:29:01.608Z,15.90
2018-11-05T03:31:29.010Z,16.30
2018-11-05T03:33:56.504Z,17.60
2018-11-05T03:36:24.132Z,17.00
2018-11-05T03:38:51.891Z,15.03
2018-11-05T03:41:19.402Z,13.73
2018-11-05T03:43:47.374Z,15.47
2018-11-05T03:46:14.900Z,16.67
2018-11-05T03:48:42.338Z,16.60
2018-11-05T03:51:10.062Z,16.20
2018-11-05T03:53:38.261Z,14.93
2018-11-05T03:56:06.257Z,15.43
2018-11-05T03:58:33.649Z,15.97
2018-11-05T04:01:01.052Z,14.93
2018-11-05T04:03:28.681Z,14.47
2018-11-05T04:05:56.291Z,16.40
2018-11-05T04:08:23.781Z,16.27
2018-11-05T04:10:51.252Z,16.13
2018-11-05T04:13:18.825Z,17.70
2018-11-05T04:15:46.950Z,18.63
2018-11-05T04:18:15.258Z,19.23
2018-11-05T04:20:42.876Z,17.67
2018-11-05T04:23:10.395Z,17.70
2018-11-05T04:25:38.549Z,15.33
2018-11-05T04:28:06.343Z,13.93
2018-11-05T04:30:33.820Z,16.30
2018-11-05T04:33:01.304Z,15.20
2018-11-05T04:35:28.821Z,14.30
2018-11-05T04:37:56.653Z,16.87
2018-11-05T04:40:24.212Z,17.50
2018-11-05T04:42:51.742Z,16.27
2018-11-05T04:45:19.320Z,15.87
2018-11-05T04:47:46.858Z,15.90
2018-11-05T04:50:14.413Z,16.40
2018-11-05T04:52:42.578Z,16.70
2018-11-05T04:55:10.097Z,16.40
2018-11-05T04:57:37.726Z,20.20
2018-11-05T05:00:12.709Z,15.60
2018-11-05T05:02:40.858Z,17.97
2018-11-05T05:05:09.028Z,16.73
2018-11-05T05:07:37.136Z,16.73
2018-11-05T05:10:05.456Z,15.67
2018-11-05T05:12:32.937Z,16.70
2018-11-05T05:15:00.304Z,17.60
2018-11-05T05:17:27.699Z,17.60
2018-11-05T05:19:55.257Z,16.20
2018-11-05T05:22:22.808Z,17.30
2018-11-05T05:24:50.321Z,17.47
2018-11-05T05:27:17.760Z,18.00
2018-11-05T05:29:45.278Z,17.50
2018-11-05T05:32:12.956Z,16.60
2018-11-05T05:34:40.414Z,18.20
2018-11-05T05:37:08.017Z,17.17
2018-11-05T05:39:35.699Z,17.67
2018-11-05T05:42:04.368Z,19.00
2018-11-05T05:44:31.791Z,18.83
2018-11-05T05:46:59.365Z,17.60
2018-11-05T05:49:27.682Z,16.93
2018-11-05T05:51:55.176Z,16.80
2018-11-05T05:54:22.820Z,16.20
2018-11-05T05:56:50.372Z,18.60
2018-11-05T05:59:17.935Z,18.77
2018-11-05T06:01:45.444Z,19.60
2018-11-05T06:04:12.992Z,17.30
2018-11-05T06:06:40.664Z,19.47
2018-11-05T06:09:09.426Z,17.97
2018-11-05T06:11:37.132Z,19.20
2018-11-05T06:14:05.992Z,16.30
2018-11-05T06:16:33.904Z,19.73
2018-11-05T06:19:01.551Z,17.47
2018-11-05T06:21:29.099Z,18.60
2018-11-05T06:23:56.615Z,18.07
2018-11-05T06:26:24.404Z,16.50
2018-11-05T06:28:53.316Z,19.80
2018-11-05T06:31:20.901Z,17.40
2018-11-05T06:33:48.479Z,19.00
2018-11-05T06:36:15.979Z,18.40
2018-11-05T06:38:44.556Z,17.07
2018-11-05T06:41:12.119Z,18.40
2018-11-05T06:43:39.556Z,18.27
2018-11-05T06:46:07.168Z,18.30
2018-11-05T06:48:34.795Z,19.10
2018-11-05T06:51:02.860Z,17.67
2018-11-05T06:53:30.441Z,16.27
2018-11-05T06:55:58.609Z,18.17
2018-11-05T06:58:26.076Z,19.20
2018-11-05T07:00:53.652Z,19.60
2018-11-05T07:03:21.357Z,19.60
2018-11-05T07:05:49.618Z,20.37
2018-11-05T07:08:17.133Z,18.27
2018-11-05T07:10:44.883Z,18.00
2018-11-05T07:13:12.502Z,18.20
2018-11-05T07:15:40.591Z,18.30
2018-11-05T07:18:08.156Z,18.40
2018-11-05T07:20:35.641Z,18.93
2018-11-05T07:23:03.237Z,21.30
2018-11-05T07:25:30.769Z,20.50
2018-11-05T07:27:58.423Z,19.87
2018-11-05T07:30:25.969Z,18.50
2018-11-05T07:32:54.645Z,21.30
2018-11-05T07:35:22.532Z,20.57
2018-11-05T07:37:50.124Z,20.43
2018-11-05T07:40:18.743Z,19.00
2018-11-05T07:42:46.882Z,21.30
2018-11-05T07:45:17.621Z,19.53
2018-11-05T07:47:45.697Z,19.47
2018-11-05T07:50:14.516Z,15.80
2018-11-05T07:52:41.977Z,18.10
2018-11-05T07:55:11.730Z,18.73
2018-11-05T07:57:40.774Z,18.53
2018-11-05T08:00:16.033Z,19.53
2018-11-05T08:02:44.311Z,18.73
2018-11-05T08:05:12.272Z,18.23
2018-11-05T08:07:39.733Z,18.83
2018-11-05T08:10:08.357Z,16.87
2018-11-05T08:12:36.811Z,18.37
2018-11-05T08:15:05.372Z,18.63
2018-11-05T08:17:32.735Z,20.43
2018-11-05T08:20:00.144Z,17.90
2018-11-05T08:22:28.370Z,20.27
2018-11-05T08:24:56.225Z,21.10
2018-11-05T08:27:23.710Z,20.17
2018-11-05T08:29:51.165Z,20.43
2018-11-05T08:32:18.668Z,18.57
2018-11-05T08:34:46.163Z,21.67
2018-11-05T08:37:14.034Z,19.70
2018-11-05T08:39:41.475Z,21.33
2018-11-05T08:42:08.878Z,18.40
2018-11-05T08:44:36.376Z,21.10
2018-11-05T08:47:03.847Z,18.97
2018-11-05T08:49:31.249Z,19.77
2018-11-05T08:51:58.720Z,18.90
2018-11-05T08:54:26.224Z,22.13
2018-11-05T08:56:53.783Z,18.73
2018-11-05T08:59:21.233Z,20.17
2018-11-05T09:01:48.652Z,18.90
2018-11-05T09:04:16.111Z,19.50
2018-11-05T09:06:43.608Z,19.47
2018-11-05T09:09:11.111Z,18.90
2018-11-05T09:11:39.041Z,18.40
2018-11-05T09:14:06.174Z,19.70
2018-11-05T09:16:33.677Z,18.33
2018-11-05T09:19:01.172Z,18.23
2018-11-05T09:21:28.594Z,19.17
2018-11-05T09:25:20.625Z,18.63
2018-11-05T09:27:48.205Z,20.67
2018-11-05T09:30:23.460Z,19.07
2018-11-05T09:32:51.117Z,19.33
2018-11-05T09:35:18.599Z,19.80
2018-11-05T09:37:46.123Z,18.83
2018-11-05T09:40:15.801Z,18.03
2018-11-05T09:42:44.125Z,18.43
2018-11-05T09:45:15.096Z,18.47
2018-11-05T09:47:43.383Z,18.30
2018-11-05T09:50:11.378Z,18.73
2018-11-05T09:52:38.998Z,18.03
2018-11-05T09:55:07.216Z,19.70
2018-11-05T09:57:34.724Z,18.97
2018-11-05T10:00:02.549Z,20.07
2018-11-05T10:02:35.729Z,18.70
2018-11-05T10:05:03.650Z,21.50
2018-11-05T10:07:30.841Z,20.53
2018-11-05T10:09:58.316Z,21.70
2018-11-05T10:12:25.841Z,19.90
2018-11-05T10:14:53.304Z,20.70
2018-11-05T10:17:20.892Z,20.90
2018-11-05T10:19:48.385Z,18.57
2018-11-05T10:22:15.913Z,20.77
2018-11-05T10:24:43.609Z,19.93
2018-11-05T10:27:11.078Z,19.50
2018-11-05T10:29:38.557Z,17.60
2018-11-05T10:32:06.081Z,17.87
2018-11-05T10:34:33.566Z,19.37
2018-11-05T10:37:00.998Z,19.70
2018-11-05T10:39:28.489Z,19.90
2018-11-05T10:41:55.987Z,19.03
2018-11-05T10:44:23.433Z,21.93
2018-11-05T10:46:50.943Z,21.10
2018-11-05T10:49:18.388Z,19.87
2018-11-05T10:51:45.961Z,18.23
2018-11-05T10:54:13.414Z,20.60
2018-11-05T10:56:40.884Z,18.40
2018-11-05T10:59:08.298Z,18.97
2018-11-05T11:01:41.523Z,19.83
2018-11-05T11:04:14.693Z,19.50
2018-11-05T11:06:42.159Z,18.43
2018-11-05T11:09:09.667Z,19.20
2018-11-05T11:11:37.137Z,18.20
2018-11-05T11:14:04.644Z,18.47
2018-11-05T11:16:32.136Z,18.70
2018-11-05T11:18:59.640Z,18.70
2018-11-05T11:21:27.091Z,20.60
2018-11-05T11:23:54.599Z,21.30
2018-11-05T11:26:22.091Z,20.50
2018-11-05T11:28:49.710Z,21.50
2018-11-05T11:31:17.045Z,19.13
2018-11-05T11:33:44.600Z,21.03
2018-11-05T11:36:12.065Z,23.20
2018-11-05T11:38:39.489Z,18.40
2018-11-05T11:41:06.926Z,20.67
2018-11-05T11:43:34.456Z,20.37
2018-11-05T11:46:01.870Z,18.93
2018-11-05T11:48:29.352Z,19.40
2018-11-05T11:50:56.914Z,19.27
2018-11-05T11:53:24.371Z,18.20
2018-11-05T11:55:51.813Z,19.97
2018-11-05T11:58:19.316Z,20.73
2018-11-05T12:00:46.736Z,20.10
2018-11-05T12:03:14.284Z,19.27
2018-11-05T12:05:41.711Z,20.90
2018-11-05T12:08:09.333Z,21.43
2018-11-05T12:10:37.146Z,20.40
2018-11-05T12:13:04.897Z,19.77
2018-11-05T12:15:32.414Z,19.33
2018-11-05T12:17:59.872Z,20.93
2018-11-05T12:20:27.555Z,17.50
2018-11-05T12:22:55.084Z,18.30
2018-11-05T12:25:22.646Z,20.37
2018-11-05T12:27:50.144Z,19.43
2018-11-05T12:30:19.902Z,18.70
2018-11-05T12:32:48.374Z,18.90
2018-11-05T12:35:15.848Z,19.37
2018-11-05T12:37:44.642Z,18.60
2018-11-05T12:40:13.686Z,20.57
2018-11-05T12:42:41.905Z,22.43
2018-11-05T12:45:09.891Z,21.50
2018-11-05T12:47:37.530Z,21.30
2018-11-05T12:50:07.975Z,19.93
2018-11-05T12:52:35.364Z,19.20
2018-11-05T12:55:02.868Z,20.23
2018-11-05T12:57:30.373Z,19.90
2018-11-05T12:59:57.880Z,21.43
2018-11-05T13:02:26.153Z,20.30
2018-11-05T13:04:54.451Z,20.33
2018-11-05T13:07:21.985Z,21.73
2018-11-05T13:09:49.565Z,21.33
2018-11-05T13:12:17.083Z,20.57
2018-11-05T13:14:44.634Z,21.33
2018-11-05T13:17:12.096Z,20.63
2018-11-05T13:19:39.676Z,20.47
2018-11-05T13:22:07.357Z,19.80
2018-11-05T13:24:34.849Z,21.23
2018-11-05T13:27:02.441Z,20.73
2018-11-05T13:29:29.912Z,19.40
2018-11-05T13:31:58.418Z,19.60
2018-11-05T13:34:25.920Z,21.70
2018-11-05T13:36:53.653Z,19.73
2018-11-05T13:39:20.956Z,21.00
2018-11-05T13:41:48.349Z,20.50
2018-11-05T13:44:15.904Z,22.13
2018-11-05T13:46:43.889Z,19.23
2018-11-05T13:49:11.508Z,19.73
2018-11-05T13:51:38.520Z,19.73
2018-11-05T13:54:06.233Z,20.33
2018-11-05T13:56:33.864Z,21.00
2018-11-05T13:59:01.351Z,19.00
2018-11-05T14:01:28.932Z,20.50
2018-11-05T14:03:56.491Z,19.57
2018-11-05T14:06:24.017Z,21.30
2018-11-05T14:08:51.625Z,22.10
2018-11-05T14:11:19.096Z,20.17
2018-11-05T14:13:46.472Z,19.20
2018-11-05T14:16:14.021Z,19.80
2018-11-05T14:18:41.473Z,19.77
2018-11-05T14:21:09.045Z,19.33
2018-11-05T14:23:36.534Z,19.10
2018-11-05T14:26:04.469Z,19.73
2018-11-05T14:28:32.221Z,19.80
2018-11-05T14:30:59.446Z,19.73
2018-11-05T14:33:26.928Z,20.80
2018-11-05T14:35:54.374Z,23.03
2018-11-05T14:38:21.986Z,19.60
2018-11-05T14:40:49.470Z,20.90
2018-11-05T14:43:17.289Z,21.70
2018-11-05T14:45:44.599Z,20.57
2018-11-05T14:48:12.143Z,18.83
2018-11-05T14:50:39.635Z,20.27
2018-11-05T14:53:07.104Z,22.50
2018-11-05T14:55:34.702Z,22.10
2018-11-05T14:58:02.312Z,20.73
2018-11-05T15:00:29.883Z,21.50
2018-11-05T15:02:57.787Z,21.57
2018-11-05T15:05:25.367Z,22.13
2018-11-05T15:07:52.828Z,23.43
2018-11-05T15:10:21.665Z,20.90
2018-11-05T15:12:49.114Z,19.87
2018-11-05T15:15:17.304Z,21.70
2018-11-05T15:17:45.209Z,21.13
2018-11-05T15:20:14.073Z,19.20
2018-11-05T15:22:41.524Z,21.57
2018-11-05T15:25:09.286Z,18.87
2018-11-05T15:27:37.742Z,21.50
2018-11-05T15:30:06.810Z,21.00
2018-11-05T15:32:34.360Z,21.90
2018-11-05T15:35:01.866Z,20.57
2018-11-05T15:37:29.321Z,20.93
2018-11-05T15:39:56.897Z,19.80
2018-11-05T15:42:25.250Z,20.50
2018-11-05T15:44:52.776Z,20.40
2018-11-05T15:47:20.328Z,20.70
2018-11-05T15:49:47.778Z,20.83
2018-11-05T15:52:16.042Z,20.07
2018-11-05T15:54:43.430Z,20.60
2018-11-05T15:57:11.084Z,20.83
2018-11-05T15:59:38.645Z,20.17
2018-11-05T16:02:11.387Z,19.80
2018-11-05T16:04:39.944Z,19.30
2018-11-05T16:07:07.989Z,19.67
2018-11-05T16:09:36.072Z,19.60
2018-11-05T16:12:03.472Z,19.80
2018-11-05T16:14:31.077Z,21.33
2018-11-05T16:16:58.646Z,21.00
2018-11-05T16:19:26.151Z,19.90
2018-11-05T16:21:53.605Z,19.87
2018-11-05T16:24:21.080Z,21.17
2018-11-05T16:26:48.573Z,21.73
2018-11-05T16:29:16.151Z,21.93
2018-11-05T16:31:43.688Z,22.30
2018-11-05T16:34:11.265Z,22.40
2018-11-05T16:36:38.817Z,22.30
2018-11-05T16:39:09.020Z,23.37
2018-11-05T16:41:36.727Z,23.60
2018-11-05T16:44:04.712Z,22.80
2018-11-05T16:46:32.243Z,21.83
2018-11-05T16:48:59.831Z,21.07
2018-11-05T16:51:27.699Z,23.20
2018-11-05T16:53:55.391Z,23.37
2018-11-05T16:56:22.827Z,22.03
2018-11-05T16:58:50.340Z,20.30
2018-11-05T17:01:17.884Z,21.03
2018-11-05T17:03:45.678Z,18.70
2018-11-05T17:06:13.182Z,18.03
2018-11-05T17:08:40.746Z,18.27
2018-11-05T17:11:09.103Z,19.70
2018-11-05T17:13:36.898Z,17.70
2018-11-05T17:16:05.149Z,16.77
2018-11-05T17:18:32.575Z,17.50
2018-11-05T17:21:00.215Z,18.37
2018-11-05T17:23:27.644Z,20.83
2018-11-05T17:25:55.439Z,19.53
2018-11-05T17:28:22.990Z,19.10
2018-11-05T17:30:50.591Z,18.67
2018-11-05T17:33:18.121Z,18.50
2018-11-05T17:35:46.673Z,19.20
2018-11-05T17:38:14.286Z,18.23
2018-11-05T17:40:41.955Z,21.13
2018-11-05T17:43:09.513Z,19.30
2018-11-05T17:45:37.022Z,18.80
2018-11-05T17:48:04.637Z,18.67
2018-11-05T17:50:32.213Z,19.97
2018-11-05T17:52:59.770Z,19.90
2018-11-05T17:55:27.221Z,18.97
2018-11-05T17:57:54.683Z,22.40
2018-11-05T18:00:22.711Z,20.43
2018-11-05T18:02:51.006Z,21.47
2018-11-05T18:05:18.711Z,20.40
2018-11-05T18:07:46.541Z,21.00
2018-11-05T18:10:14.164Z,20.77
2018-11-05T18:12:41.672Z,22.33
2018-11-05T18:15:10.181Z,22.03
2018-11-05T18:17:38.199Z,21.87
2018-11-05T18:20:06.389Z,21.53
2018-11-05T18:22:33.873Z,20.60
2018-11-05T18:25:01.430Z,19.40
2018-11-05T18:27:29.084Z,17.60
2018-11-05T18:29:56.624Z,19.20
2018-11-05T18:32:24.160Z,18.00
2018-11-05T18:34:52.121Z,17.50
2018-11-05T18:37:19.745Z,17.50
2018-11-05T18:39:47.694Z,18.80
2018-11-05T18:42:15.247Z,19.47
2018-11-05T18:44:42.677Z,20.43
2018-11-05T18:47:10.726Z,22.37
2018-11-05T18:49:38.227Z,20.17
2018-11-05T18:52:06.173Z,18.23
2018-11-05T18:54:33.813Z,20.73
2018-11-05T18:57:01.497Z,19.80
2018-11-05T18:59:29.069Z,21.80
2018-11-05T19:01:56.614Z,18.30
2018-11-05T19:04:24.100Z,19.07
2018-11-05T19:06:51.673Z,20.50
2018-11-05T19:09:19.191Z,22.93
2018-11-05T19:11:46.666Z,21.50
2018-11-05T19:14:14.117Z,21.10
2018-11-05T19:16:41.536Z,19.93
2018-11-05T19:19:09.007Z,20.70
2018-11-05T19:21:49.604Z,21.80
2018-11-05T19:24:17.533Z,18.80
2018-11-05T19:26:44.827Z,18.40
2018-11-05T19:29:12.449Z,18.40
2018-11-05T19:31:40.118Z,18.63
2018-11-05T19:34:08.179Z,20.53
2018-11-05T19:36:35.655Z,22.50
2018-11-05T19:39:04.377Z,21.10
2018-11-05T19:41:32.084Z,21.27
2018-11-05T19:43:59.548Z,20.70
2018-11-05T19:46:27.103Z,18.37
2018-11-05T19:48:54.560Z,20.53
2018-11-05T19:51:22.012Z,20.77
2018-11-05T19:53:49.647Z,22.43
2018-11-05T19:56:17.245Z,18.83
2018-11-05T19:58:44.655Z,17.97
2018-11-05T20:01:12.323Z,18.40
2018-11-05T20:03:39.884Z,19.67
2018-11-05T20:06:07.430Z,20.20
2018-11-05T20:08:34.947Z,18.47
2018-11-05T20:11:02.497Z,18.47
2018-11-05T20:14:54.481Z,19.67
2018-11-05T20:17:22.958Z,19.30
2018-11-05T20:19:51.019Z,20.43
2018-11-05T20:22:18.723Z,19.70
2018-11-05T20:24:46.322Z,18.50
2018-11-05T20:27:14.223Z,22.60
2018-11-05T20:29:42.167Z,19.37
2018-11-05T20:32:09.960Z,21.13
2018-11-05T20:34:37.751Z,18.03
2018-11-05T20:37:05.185Z,18.50
2018-11-05T20:39:32.847Z,20.60
2018-11-05T20:42:00.553Z,18.77
2018-11-05T20:44:28.864Z,20.00
2018-11-05T20:46:56.493Z,19.87
2018-11-05T20:49:24.215Z,19.27
2018-11-05T20:51:51.802Z,18.93
2018-11-05T20:54:19.461Z,18.50
2018-11-05T20:56:47.127Z,17.93
2018-11-05T20:59:14.859Z,19.13
2018-11-05T21:01:42.474Z,19.83
2018-11-05T21:04:09.988Z,20.50
2018-11-05T21:06:38.319Z,19.63
2018-11-05T21:09:08.721Z,19.33
2018-11-05T21:11:36.286Z,20.23
2018-11-05T21:14:03.992Z,21.13
2018-11-05T21:16:32.441Z,20.97
2018-11-05T21:19:00.199Z,21.73
2018-11-05T21:21:28.902Z,21.93
2018-11-05T21:23:57.077Z,20.70
2018-11-05T21:26:24.702Z,20.00
2018-11-05T21:28:52.502Z,18.53
2018-11-05T21:31:20.321Z,20.80
2018-11-05T21:33:47.947Z,20.17
2018-11-05T21:36:16.332Z,18.80
2018-11-05T21:38:43.867Z,20.73
2018-11-05T21:41:11.482Z,21.03
2018-11-05T21:43:39.063Z,20.67
2018-11-05T21:46:06.638Z,18.93
2018-11-05T21:48:34.334Z,19.60
2018-11-05T21:51:02.024Z,20.27
2018-11-05T21:53:29.665Z,20.87
2018-11-05T21:55:57.321Z,20.33
2018-11-05T21:58:24.984Z,22.07
2018-11-05T22:00:54.749Z,20.50
2018-11-05T22:03:25.577Z,21.43
2018-11-05T22:05:53.533Z,19.70
2018-11-05T22:08:21.621Z,19.90
2018-11-05T22:10:49.614Z,20.43
2018-11-05T22:13:17.404Z,19.17
2018-11-05T22:15:46.596Z,19.30
2018-11-05T22:18:15.112Z,19.20
2018-11-05T22:20:42.766Z,18.10
2018-11-05T22:23:10.377Z,19.20
2018-11-05T22:25:38.029Z,19.10
2018-11-05T22:28:05.923Z,20.47
2018-11-05T22:30:33.483Z,19.40
2018-11-05T22:33:01.103Z,18.63
2018-11-05T22:35:29.310Z,18.70
2018-11-05T22:37:57.037Z,18.17
2018-11-05T22:40:24.667Z,19.60
2018-11-05T22:42:52.284Z,19.50
2018-11-05T22:45:20.330Z,18.33
2018-11-05T22:47:47.975Z,23.40
2018-11-05T22:50:15.885Z,20.30
2018-11-05T22:52:43.499Z,20.07
2018-11-05T22:55:11.405Z,22.00
2018-11-05T22:57:38.902Z,18.17
2018-11-05T23:01:14.341Z,20.00
2018-11-05T23:03:42.047Z,20.10
2018-11-05T23:06:09.726Z,24.10
2018-11-05T23:08:37.180Z,19.70
2018-11-05T23:11:04.904Z,18.27
2018-11-05T23:13:32.518Z,19.90
2018-11-05T23:16:00.170Z,17.37
2018-11-05T23:18:29.362Z,20.47
2018-11-05T23:20:56.882Z,21.40
2018-11-05T23:23:24.466Z,17.33
2018-11-05T23:25:51.973Z,20.20
2018-11-05T23:28:19.677Z,19.73
2018-11-05T23:30:47.992Z,18.97
2018-11-05T23:33:16.642Z,19.50
2018-11-05T23:35:44.143Z,20.00
2018-11-05T23:38:11.553Z,21.97
2018-11-05T23:40:38.956Z,21.87
2018-11-05T23:43:06.387Z,21.57
2018-11-05T23:45:33.902Z,23.53
2018-11-05T23:48:01.423Z,21.60
2018-11-05T23:50:29.047Z,20.73
2018-11-05T23:52:56.627Z,20.27
2018-11-05T23:55:24.202Z,18.20
2018-11-05T23:57:51.785Z,17.77
